createdAt,value
2023-05-20T00:00:53.117Z,19.15
2023-05-20T00:03:39.236Z,18.88
2023-05-20T00:06:22.359Z,19.73
2023-05-20T00:09:08.202Z,20.73
2023-05-20T00:11:51.289Z,21.48
2023-05-20T00:14:38.901Z,21.00
2023-05-20T00:17:08.987Z,23.60
2023-05-20T00:19:54.879Z,26.30
2023-05-20T00:22:30.995Z,35.00
2023-05-20T00:25:20.567Z,39.90
2023-05-20T00:28:10.155Z,40.22
2023-05-20T00:30:54.974Z,36.70
2023-05-20T00:33:39.679Z,33.17
2023-05-20T00:36:25.853Z,30.95
2023-05-20T00:39:21.808Z,28.10
2023-05-20T00:42:14.997Z,24.20
2023-05-20T00:45:06.136Z,22.35
2023-05-20T00:47:48.047Z,22.98
2023-05-20T00:51:00.541Z,22.13
2023-05-20T00:53:42.846Z,20.15
2023-05-20T00:56:28.000Z,21.55
2023-05-20T00:59:17.088Z,31.17
2023-05-20T01:02:00.158Z,25.15
2023-05-20T01:04:50.306Z,27.02
2023-05-20T01:07:38.855Z,25.92
2023-05-20T01:10:19.341Z,24.17
2023-05-20T01:13:02.980Z,23.98
2023-05-20T01:15:49.915Z,22.08
2023-05-20T01:18:30.969Z,21.75
2023-05-20T01:21:19.192Z,26.85
2023-05-20T01:24:08.712Z,21.67
2023-05-20T01:27:06.014Z,22.85
2023-05-20T01:29:59.580Z,22.23
2023-05-20T01:32:41.517Z,24.73
2023-05-20T01:35:29.211Z,20.50
2023-05-20T01:38:09.717Z,20.95
2023-05-20T01:40:51.063Z,23.30
2023-05-20T01:43:41.053Z,23.30
2023-05-20T01:46:20.893Z,20.98
2023-05-20T01:49:14.711Z,22.67
2023-05-20T01:51:58.706Z,23.40
2023-05-20T01:54:42.955Z,20.92
2023-05-20T01:57:34.055Z,25.40
2023-05-20T02:00:29.748Z,20.58
2023-05-20T02:03:13.540Z,23.27
2023-05-20T02:05:59.747Z,21.33
2023-05-20T02:08:48.254Z,24.77
2023-05-20T02:11:33.333Z,25.10
2023-05-20T02:14:23.825Z,22.85
2023-05-20T02:17:30.101Z,21.17
2023-05-20T02:20:16.180Z,21.23
2023-05-20T02:22:56.919Z,21.58
2023-05-20T02:25:37.093Z,21.45
2023-05-20T02:28:34.287Z,23.45
2023-05-20T02:31:28.463Z,21.67
2023-05-20T02:34:06.655Z,24.58
2023-05-20T02:36:56.587Z,24.88
2023-05-20T02:39:32.942Z,25.33
2023-05-20T02:42:21.869Z,26.27
2023-05-20T02:45:14.652Z,23.88
2023-05-20T02:50:42.971Z,23.30
2023-05-20T02:53:35.787Z,23.27
2023-05-20T02:56:21.480Z,25.42
2023-05-20T02:59:04.851Z,22.55
2023-05-20T03:01:43.073Z,23.17
2023-05-20T03:04:25.030Z,23.50
2023-05-20T03:07:11.764Z,30.83
2023-05-20T03:10:00.453Z,31.52
2023-05-20T03:12:38.466Z,34.33
2023-05-20T03:15:26.337Z,31.27
2023-05-20T03:18:11.165Z,29.33
2023-05-20T03:21:00.243Z,25.63
2023-05-20T03:23:43.951Z,31.58
2023-05-20T03:26:28.797Z,30.55
2023-05-20T03:29:12.522Z,39.60
2023-05-20T03:34:34.199Z,41.22
2023-05-20T03:37:20.450Z,46.45
2023-05-20T03:40:10.553Z,52.58
2023-05-20T03:42:46.861Z,62.85
2023-05-20T03:45:30.407Z,67.57
2023-05-20T03:48:26.094Z,64.53
2023-05-20T03:51:07.924Z,62.38
2023-05-20T03:53:52.136Z,57.58
2023-05-20T03:56:46.730Z,52.45
2023-05-20T03:59:43.215Z,48.78
2023-05-20T04:02:32.014Z,45.22
2023-05-20T04:05:10.947Z,42.58
2023-05-20T04:07:59.216Z,40.53
2023-05-20T04:10:46.331Z,38.70
2023-05-20T04:13:30.744Z,40.45
2023-05-20T04:16:14.103Z,37.55
2023-05-20T04:19:01.795Z,41.05
2023-05-20T04:21:49.700Z,41.72
2023-05-20T04:24:34.033Z,44.33
2023-05-20T04:27:20.747Z,46.67
2023-05-20T04:30:01.884Z,54.22
2023-05-20T04:32:41.773Z,60.08
2023-05-20T04:35:21.332Z,61.78
2023-05-20T04:38:08.678Z,56.40
2023-05-20T04:40:51.195Z,63.78
2023-05-20T04:43:36.708Z,71.07
2023-05-20T04:46:24.506Z,67.88
2023-05-20T04:49:08.406Z,59.25
2023-05-20T04:51:51.964Z,46.55
2023-05-20T04:54:38.782Z,36.20
2023-05-20T04:57:25.366Z,22.20
2023-05-20T05:00:05.368Z,18.33
2023-05-20T05:02:51.876Z,17.52
2023-05-20T05:05:40.006Z,14.52
2023-05-20T05:08:27.524Z,18.08
2023-05-20T05:11:16.634Z,16.38
2023-05-20T05:14:03.747Z,16.67
2023-05-20T05:16:50.054Z,14.23
2023-05-20T05:19:37.292Z,12.30
2023-05-20T05:25:22.685Z,13.73
2023-05-20T05:28:02.374Z,14.35
2023-05-20T05:30:44.925Z,12.93
2023-05-20T05:33:23.159Z,10.77
2023-05-20T05:36:08.718Z,14.25
2023-05-20T05:38:48.900Z,14.93
2023-05-20T05:41:31.942Z,12.70
2023-05-20T05:44:27.357Z,13.70
2023-05-20T05:47:10.805Z,12.05
2023-05-20T05:52:29.084Z,13.50
2023-05-20T05:55:15.612Z,17.92
2023-05-20T05:58:06.584Z,13.38
2023-05-20T06:00:39.510Z,20.73
2023-05-20T06:03:22.542Z,12.27
2023-05-20T06:06:09.030Z,19.23
2023-05-20T06:08:54.462Z,11.77
2023-05-20T06:11:38.548Z,11.63
2023-05-20T06:14:23.259Z,11.07
2023-05-20T06:17:08.991Z,14.70
2023-05-20T06:19:55.945Z,19.00
2023-05-20T06:22:36.915Z,13.95
2023-05-20T06:25:30.694Z,14.38
2023-05-20T06:28:14.727Z,9.88
2023-05-20T06:30:58.535Z,15.30
2023-05-20T06:33:45.150Z,15.27
2023-05-20T06:36:25.918Z,11.20
2023-05-20T06:39:01.250Z,9.77
2023-05-20T06:41:42.042Z,8.85
2023-05-20T06:44:32.761Z,14.57
2023-05-20T06:47:21.523Z,15.77
2023-05-20T06:50:13.651Z,10.45
2023-05-20T06:53:00.530Z,14.13
2023-05-20T06:55:40.771Z,11.85
2023-05-20T06:58:18.991Z,12.07
2023-05-20T07:01:05.387Z,12.38
2023-05-20T07:03:47.033Z,12.32
2023-05-20T07:06:27.856Z,11.43
2023-05-20T07:09:11.777Z,11.20
2023-05-20T07:11:53.500Z,16.10
2023-05-20T07:14:33.827Z,11.73
2023-05-20T07:17:18.285Z,14.77
2023-05-20T07:20:05.230Z,16.83
2023-05-20T07:22:52.975Z,15.93
2023-05-20T07:25:46.981Z,12.40
2023-05-20T07:28:34.664Z,16.33
2023-05-20T07:33:57.966Z,12.52
2023-05-20T07:36:41.734Z,14.63
2023-05-20T07:39:18.647Z,15.32
2023-05-20T07:41:56.984Z,12.68
2023-05-20T07:44:46.941Z,17.38
2023-05-20T07:47:25.519Z,17.45
2023-05-20T07:50:07.047Z,13.40
2023-05-20T07:52:56.338Z,14.40
2023-05-20T07:55:48.935Z,13.32
2023-05-20T07:58:31.715Z,14.57
2023-05-20T08:01:10.135Z,10.82
2023-05-20T08:03:57.109Z,16.50
2023-05-20T08:06:33.693Z,15.15
2023-05-20T08:09:21.850Z,15.48
2023-05-20T08:12:19.360Z,15.70
2023-05-20T08:15:01.976Z,19.27
2023-05-20T08:17:53.656Z,13.65
2023-05-20T08:20:35.395Z,15.02
2023-05-20T08:23:19.069Z,23.20
2023-05-20T08:25:57.758Z,16.95
2023-05-20T08:28:39.706Z,16.83
2023-05-20T08:31:21.293Z,14.35
2023-05-20T08:34:04.972Z,14.65
2023-05-20T08:36:51.749Z,13.15
2023-05-20T08:39:32.913Z,15.70
2023-05-20T08:42:14.006Z,14.13
2023-05-20T08:45:01.938Z,13.13
2023-05-20T08:48:05.629Z,14.32
2023-05-20T08:50:39.036Z,17.70
2023-05-20T08:53:14.462Z,16.40
2023-05-20T08:56:10.929Z,18.33
2023-05-20T08:58:49.191Z,11.13
2023-05-20T09:01:31.765Z,15.52
2023-05-20T09:04:12.092Z,17.35
2023-05-20T09:07:18.007Z,16.77
2023-05-20T09:10:06.897Z,13.95
2023-05-20T09:12:55.852Z,20.83
2023-05-20T09:15:40.997Z,23.13
2023-05-20T09:18:19.651Z,13.25
2023-05-20T09:21:15.988Z,13.13
2023-05-20T09:24:01.676Z,18.67
2023-05-20T09:26:37.505Z,12.70
2023-05-20T09:29:32.929Z,14.25
2023-05-20T09:32:41.426Z,14.15
2023-05-20T09:35:27.031Z,12.85
2023-05-20T09:38:12.891Z,13.80
2023-05-20T09:41:01.997Z,12.48
2023-05-20T09:43:47.024Z,14.75
2023-05-20T09:46:18.171Z,11.63
2023-05-20T09:48:54.600Z,14.05
2023-05-20T09:51:39.143Z,12.90
2023-05-20T09:54:13.078Z,11.57
2023-05-20T09:56:59.288Z,12.70
2023-05-20T09:59:46.558Z,15.37
2023-05-20T10:02:36.864Z,11.73
2023-05-20T10:05:20.481Z,12.33
2023-05-20T10:08:44.139Z,18.75
2023-05-20T10:11:37.962Z,15.75
2023-05-20T10:14:35.087Z,19.83
2023-05-20T10:17:26.877Z,11.88
2023-05-20T10:20:12.973Z,13.18
2023-05-20T10:29:11.783Z,11.27
2023-05-20T10:32:04.553Z,12.40
2023-05-20T10:34:51.748Z,12.77
2023-05-20T10:37:48.347Z,15.63
2023-05-20T10:40:31.433Z,12.98
2023-05-20T10:43:16.364Z,13.10
2023-05-20T10:46:00.277Z,13.32
2023-05-20T10:48:45.389Z,14.50
2023-05-20T10:51:33.002Z,13.05
2023-05-20T10:54:16.486Z,11.43
2023-05-20T10:57:02.712Z,11.10
2023-05-20T10:59:39.036Z,14.32
2023-05-20T11:02:20.398Z,14.02
2023-05-20T11:04:47.987Z,15.00
2023-05-20T11:07:35.356Z,13.27
2023-05-20T11:10:05.367Z,11.85
2023-05-20T11:12:40.778Z,12.98
2023-05-20T11:15:24.854Z,11.68
2023-05-20T11:18:06.250Z,12.52
2023-05-20T11:20:55.632Z,18.55
2023-05-20T11:23:31.529Z,15.10
2023-05-20T11:26:14.380Z,12.55
2023-05-20T11:28:48.038Z,17.77
2023-05-20T11:31:34.889Z,15.60
2023-05-20T11:34:16.071Z,13.38
2023-05-20T11:37:11.276Z,14.15
2023-05-20T11:39:46.294Z,15.00
2023-05-20T11:42:21.847Z,14.45
2023-05-20T11:44:49.356Z,16.38
2023-05-20T11:47:19.294Z,17.25
2023-05-20T11:50:04.968Z,13.98
2023-05-20T11:52:48.929Z,11.27
2023-05-20T11:55:28.224Z,13.15
2023-05-20T11:57:56.922Z,10.88
2023-05-20T12:00:36.266Z,13.70
2023-05-20T12:03:33.078Z,15.55
2023-05-20T12:06:06.226Z,15.40
2023-05-20T12:08:49.667Z,13.30
2023-05-20T12:11:36.928Z,13.02
2023-05-20T12:14:21.456Z,13.70
2023-05-20T12:16:57.047Z,16.50
2023-05-20T12:19:37.005Z,13.30
2023-05-20T12:22:24.650Z,11.75
2023-05-20T12:25:03.182Z,14.85
2023-05-20T12:27:48.217Z,14.60
2023-05-20T12:30:21.077Z,9.98
2023-05-20T12:33:08.682Z,18.10
2023-05-20T12:35:51.286Z,14.55
2023-05-20T12:38:26.713Z,12.48
2023-05-20T12:41:04.312Z,11.57
2023-05-20T12:43:36.814Z,9.57
2023-05-20T12:46:15.433Z,8.60
2023-05-20T12:48:45.522Z,12.60
2023-05-20T12:51:31.594Z,10.45
2023-05-20T12:54:21.115Z,9.02
2023-05-20T12:57:07.340Z,13.18
2023-05-20T12:59:45.388Z,11.38
2023-05-20T13:02:27.767Z,11.93
2023-05-20T13:05:16.382Z,15.60
2023-05-20T13:08:03.644Z,11.90
2023-05-20T13:13:16.463Z,12.57
2023-05-20T13:15:58.023Z,12.88
2023-05-20T13:18:41.757Z,11.18
2023-05-20T13:21:22.115Z,13.48
2023-05-20T13:24:06.091Z,9.95
2023-05-20T13:26:48.380Z,12.70
2023-05-20T13:29:36.725Z,15.68
2023-05-20T13:32:15.347Z,16.55
2023-05-20T13:34:59.819Z,12.98
2023-05-20T13:37:42.602Z,10.95
2023-05-20T13:40:16.888Z,10.07
2023-05-20T13:43:05.243Z,14.70
2023-05-20T13:45:38.071Z,11.90
2023-05-20T13:48:13.596Z,15.88
2023-05-20T13:51:05.141Z,13.05
